sensor_id;sensor_type;location;lat;lon;timestamp;temperature;humidity
43561;DHT22;32305;46.410;17.394;2023-02-22T00:00:44;22.30;38.70
43561;DHT22;32305;46.410;17.394;2023-02-22T00:03:17;22.30;38.70
43561;DHT22;32305;46.410;17.394;2023-02-22T00:05:57;22.20;38.60
43561;DHT22;32305;46.410;17.394;2023-02-22T00:08:28;22.30;38.70
43561;DHT22;32305;46.410;17.394;2023-02-22T00:10:57;22.20;38.60
43561;DHT22;32305;46.410;17.394;2023-02-22T00:13:25;22.20;38.60
43561;DHT22;32305;46.410;17.394;2023-02-22T00:15:56;22.20;38.60
43561;DHT22;32305;46.410;17.394;2023-02-22T00:18:23;22.20;38.60
43561;DHT22;32305;46.410;17.394;2023-02-22T00:20:54;22.20;38.60
43561;DHT22;32305;46.410;17.394;2023-02-22T00:23:22;22.20;38.60
43561;DHT22;32305;46.410;17.394;2023-02-22T00:25:50;22.20;38.60
43561;DHT22;32305;46.410;17.394;2023-02-22T00:28:17;22.20;38.60
43561;DHT22;32305;46.410;17.394;2023-02-22T00:30:44;22.20;38.60
43561;DHT22;32305;46.410;17.394;2023-02-22T00:33:15;22.20;38.60
43561;DHT22;32305;46.410;17.394;2023-02-22T00:35:43;22.10;38.60
43561;DHT22;32305;46.410;17.394;2023-02-22T00:38:16;22.10;38.50
43561;DHT22;32305;46.410;17.394;2023-02-22T00:40:44;22.20;38.60
43561;DHT22;32305;46.410;17.394;2023-02-22T00:43:11;22.10;38.50
43561;DHT22;32305;46.410;17.394;2023-02-22T00:45:39;22.10;38.50
43561;DHT22;32305;46.410;17.394;2023-02-22T00:48:07;22.10;38.50
43561;DHT22;32305;46.410;17.394;2023-02-22T00:50:34;22.10;38.50
43561;DHT22;32305;46.410;17.394;2023-02-22T00:53:03;22.10;38.50
43561;DHT22;32305;46.410;17.394;2023-02-22T00:55:33;22.10;38.50
43561;DHT22;32305;46.410;17.394;2023-02-22T00:58:01;22.10;38.50
43561;DHT22;32305;46.410;17.394;2023-02-22T01:00:31;22.10;38.50
43561;DHT22;32305;46.410;17.394;2023-02-22T01:02:58;22.10;38.50
43561;DHT22;32305;46.410;17.394;2023-02-22T01:05:28;22.10;38.50
43561;DHT22;32305;46.410;17.394;2023-02-22T01:07:56;22.10;38.50
43561;DHT22;32305;46.410;17.394;2023-02-22T01:10:26;22.10;38.50
43561;DHT22;32305;46.410;17.394;2023-02-22T01:12:54;22.10;38.50
43561;DHT22;32305;46.410;17.394;2023-02-22T01:15:24;22.10;38.50
43561;DHT22;32305;46.410;17.394;2023-02-22T01:17:53;22.10;38.50
43561;DHT22;32305;46.410;17.394;2023-02-22T01:20:21;22.10;38.50
43561;DHT22;32305;46.410;17.394;2023-02-22T01:22:50;22.10;38.50
43561;DHT22;32305;46.410;17.394;2023-02-22T01:25:22;22.00;38.40
43561;DHT22;32305;46.410;17.394;2023-02-22T01:27:50;22.00;38.50
43561;DHT22;32305;46.410;17.394;2023-02-22T01:30:23;22.00;38.40
43561;DHT22;32305;46.410;17.394;2023-02-22T01:32:51;22.00;38.40
43561;DHT22;32305;46.410;17.394;2023-02-22T01:35:22;22.00;38.40
43561;DHT22;32305;46.410;17.394;2023-02-22T01:37:49;22.00;38.40
43561;DHT22;32305;46.410;17.394;2023-02-22T01:40:27;22.00;38.40
43561;DHT22;32305;46.410;17.394;2023-02-22T01:42:56;22.10;38.40
43561;DHT22;32305;46.410;17.394;2023-02-22T01:45:42;22.00;38.40
43561;DHT22;32305;46.410;17.394;2023-02-22T01:48:37;22.00;38.30
43561;DHT22;32305;46.410;17.394;2023-02-22T01:51:15;22.00;38.30
43561;DHT22;32305;46.410;17.394;2023-02-22T01:54:06;22.00;38.30
43561;DHT22;32305;46.410;17.394;2023-02-22T01:56:37;22.00;38.30
43561;DHT22;32305;46.410;17.394;2023-02-22T01:59:08;22.00;38.20
43561;DHT22;32305;46.410;17.394;2023-02-22T02:01:38;22.00;38.30
43561;DHT22;32305;46.410;17.394;2023-02-22T02:04:11;22.00;38.20
43561;DHT22;32305;46.410;17.394;2023-02-22T02:06:39;22.00;38.20
43561;DHT22;32305;46.410;17.394;2023-02-22T02:12:00;22.00;38.20
43561;DHT22;32305;46.410;17.394;2023-02-22T02:14:28;22.00;38.20
43561;DHT22;32305;46.410;17.394;2023-02-22T02:16:58;22.00;38.20
43561;DHT22;32305;46.410;17.394;2023-02-22T02:20:04;22.00;38.10
43561;DHT22;32305;46.410;17.394;2023-02-22T02:23:01;22.00;38.30
43561;DHT22;32305;46.410;17.394;2023-02-22T02:32:09;21.90;38.10
43561;DHT22;32305;46.410;17.394;2023-02-22T02:37:55;22.00;38.10
43561;DHT22;32305;46.410;17.394;2023-02-22T02:40:46;21.90;38.10
43561;DHT22;32305;46.410;17.394;2023-02-22T02:43:37;21.90;38.10
43561;DHT22;32305;46.410;17.394;2023-02-22T02:46:14;21.90;38.10
43561;DHT22;32305;46.410;17.394;2023-02-22T02:48:50;21.90;38.10
43561;DHT22;32305;46.410;17.394;2023-02-22T02:51:22;21.90;38.10
43561;DHT22;32305;46.410;17.394;2023-02-22T02:53:51;21.90;38.00
43561;DHT22;32305;46.410;17.394;2023-02-22T02:56:18;21.90;38.10
43561;DHT22;32305;46.410;17.394;2023-02-22T02:58:48;21.90;38.00
43561;DHT22;32305;46.410;17.394;2023-02-22T03:04:58;21.90;38.00
43561;DHT22;32305;46.410;17.394;2023-02-22T03:07:41;21.90;38.00
43561;DHT22;32305;46.410;17.394;2023-02-22T03:10:45;21.90;38.00
43561;DHT22;32305;46.410;17.394;2023-02-22T03:13:41;21.90;38.10
43561;DHT22;32305;46.410;17.394;2023-02-22T03:16:29;21.90;38.00
43561;DHT22;32305;46.410;17.394;2023-02-22T03:19:31;21.80;38.00
43561;DHT22;32305;46.410;17.394;2023-02-22T03:22:21;21.80;38.00
43561;DHT22;32305;46.410;17.394;2023-02-22T03:25:11;21.80;38.00
43561;DHT22;32305;46.410;17.394;2023-02-22T03:27:53;21.80;38.00
43561;DHT22;32305;46.410;17.394;2023-02-22T03:30:22;21.80;38.00
43561;DHT22;32305;46.410;17.394;2023-02-22T03:32:55;21.80;38.00
43561;DHT22;32305;46.410;17.394;2023-02-22T03:35:29;21.80;38.00
43561;DHT22;32305;46.410;17.394;2023-02-22T03:38:01;21.80;38.00
43561;DHT22;32305;46.410;17.394;2023-02-22T03:40:36;21.80;38.00
43561;DHT22;32305;46.410;17.394;2023-02-22T03:43:08;21.80;38.00
43561;DHT22;32305;46.410;17.394;2023-02-22T03:45:37;21.80;38.00
43561;DHT22;32305;46.410;17.394;2023-02-22T03:48:23;21.80;37.90
43561;DHT22;32305;46.410;17.394;2023-02-22T03:50:52;21.80;37.90
43561;DHT22;32305;46.410;17.394;2023-02-22T03:53:19;21.80;37.80
43561;DHT22;32305;46.410;17.394;2023-02-22T03:55:49;21.80;37.80
43561;DHT22;32305;46.410;17.394;2023-02-22T03:58:20;21.80;37.80
43561;DHT22;32305;46.410;17.394;2023-02-22T04:00:48;21.80;37.80
43561;DHT22;32305;46.410;17.394;2023-02-22T04:03:20;21.80;37.80
43561;DHT22;32305;46.410;17.394;2023-02-22T04:05:48;21.80;37.80
43561;DHT22;32305;46.410;17.394;2023-02-22T04:08:15;21.80;37.80
43561;DHT22;32305;46.410;17.394;2023-02-22T04:10:43;21.80;37.80
43561;DHT22;32305;46.410;17.394;2023-02-22T04:13:10;21.80;37.70
43561;DHT22;32305;46.410;17.394;2023-02-22T04:15:37;21.80;37.70
43561;DHT22;32305;46.410;17.394;2023-02-22T04:18:04;21.80;37.70
43561;DHT22;32305;46.410;17.394;2023-02-22T04:20:32;21.80;37.60
43561;DHT22;32305;46.410;17.394;2023-02-22T04:23:00;21.80;37.60
43561;DHT22;32305;46.410;17.394;2023-02-22T04:25:27;21.80;37.60
43561;DHT22;32305;46.410;17.394;2023-02-22T04:27:55;21.80;37.60
43561;DHT22;32305;46.410;17.394;2023-02-22T04:30:22;21.80;37.60
43561;DHT22;32305;46.410;17.394;2023-02-22T04:32:49;21.80;37.60
43561;DHT22;32305;46.410;17.394;2023-02-22T04:35:17;21.80;37.60
43561;DHT22;32305;46.410;17.394;2023-02-22T04:37:44;21.80;37.60
43561;DHT22;32305;46.410;17.394;2023-02-22T04:40:11;21.80;37.60
43561;DHT22;32305;46.410;17.394;2023-02-22T04:42:38;21.80;37.60
43561;DHT22;32305;46.410;17.394;2023-02-22T04:45:07;21.80;37.60
43561;DHT22;32305;46.410;17.394;2023-02-22T04:47:35;21.80;37.60
43561;DHT22;32305;46.410;17.394;2023-02-22T04:50:07;21.70;37.50
43561;DHT22;32305;46.410;17.394;2023-02-22T04:52:35;21.70;37.50
43561;DHT22;32305;46.410;17.394;2023-02-22T04:55:02;21.70;37.50
43561;DHT22;32305;46.410;17.394;2023-02-22T04:57:30;21.70;37.50
43561;DHT22;32305;46.410;17.394;2023-02-22T04:59:57;21.70;37.50
43561;DHT22;32305;46.410;17.394;2023-02-22T05:02:25;21.70;37.50
43561;DHT22;32305;46.410;17.394;2023-02-22T05:04:52;21.70;37.50
43561;DHT22;32305;46.410;17.394;2023-02-22T05:07:19;21.70;37.50
43561;DHT22;32305;46.410;17.394;2023-02-22T05:09:46;21.70;37.50
43561;DHT22;32305;46.410;17.394;2023-02-22T05:12:13;21.70;37.50
43561;DHT22;32305;46.410;17.394;2023-02-22T05:14:41;21.70;37.50
43561;DHT22;32305;46.410;17.394;2023-02-22T05:17:08;21.70;37.50
43561;DHT22;32305;46.410;17.394;2023-02-22T05:19:35;21.70;37.50
43561;DHT22;32305;46.410;17.394;2023-02-22T05:22:03;21.70;37.50
43561;DHT22;32305;46.410;17.394;2023-02-22T05:24:31;21.70;37.50
43561;DHT22;32305;46.410;17.394;2023-02-22T05:26:59;21.70;37.50
43561;DHT22;32305;46.410;17.394;2023-02-22T05:29:26;21.70;37.50
43561;DHT22;32305;46.410;17.394;2023-02-22T05:31:53;21.70;37.50
43561;DHT22;32305;46.410;17.394;2023-02-22T05:34:20;21.70;37.50
43561;DHT22;32305;46.410;17.394;2023-02-22T05:36:47;21.70;37.40
43561;DHT22;32305;46.410;17.394;2023-02-22T05:39:14;21.70;37.20
43561;DHT22;32305;46.410;17.394;2023-02-22T05:41:42;21.70;37.00
43561;DHT22;32305;46.410;17.394;2023-02-22T05:44:09;21.60;36.90
43561;DHT22;32305;46.410;17.394;2023-02-22T05:46:36;21.70;36.90
43561;DHT22;32305;46.410;17.394;2023-02-22T05:49:03;21.60;36.90
43561;DHT22;32305;46.410;17.394;2023-02-22T05:51:30;21.60;36.80
43561;DHT22;32305;46.410;17.394;2023-02-22T05:53:57;21.60;36.80
43561;DHT22;32305;46.410;17.394;2023-02-22T05:56:27;21.60;36.80
43561;DHT22;32305;46.410;17.394;2023-02-22T05:58:54;21.60;36.70
43561;DHT22;32305;46.410;17.394;2023-02-22T06:01:21;21.60;36.60
43561;DHT22;32305;46.410;17.394;2023-02-22T06:03:50;21.60;36.50
43561;DHT22;32305;46.410;17.394;2023-02-22T06:06:18;21.60;36.50
43561;DHT22;32305;46.410;17.394;2023-02-22T06:08:48;21.70;36.50
43561;DHT22;32305;46.410;17.394;2023-02-22T06:11:15;21.70;36.40
43561;DHT22;32305;46.410;17.394;2023-02-22T06:13:50;21.70;36.30
43561;DHT22;32305;46.410;17.394;2023-02-22T06:16:21;21.80;36.30
43561;DHT22;32305;46.410;17.394;2023-02-22T06:18:49;21.80;36.20
43561;DHT22;32305;46.410;17.394;2023-02-22T06:21:16;21.80;36.10
43561;DHT22;32305;46.410;17.394;2023-02-22T06:23:44;21.90;36.10
43561;DHT22;32305;46.410;17.394;2023-02-22T06:26:11;21.90;36.00
43561;DHT22;32305;46.410;17.394;2023-02-22T06:28:41;21.90;35.90
43561;DHT22;32305;46.410;17.394;2023-02-22T06:31:08;22.00;35.90
43561;DHT22;32305;46.410;17.394;2023-02-22T06:33:35;22.00;35.90
43561;DHT22;32305;46.410;17.394;2023-02-22T06:36:03;22.00;35.90
43561;DHT22;32305;46.410;17.394;2023-02-22T06:38:31;22.10;35.90
43561;DHT22;32305;46.410;17.394;2023-02-22T06:40:59;22.10;35.80
43561;DHT22;32305;46.410;17.394;2023-02-22T06:43:26;22.10;35.80
43561;DHT22;32305;46.410;17.394;2023-02-22T06:45:53;22.20;35.70
43561;DHT22;32305;46.410;17.394;2023-02-22T06:48:20;22.30;35.70
43561;DHT22;32305;46.410;17.394;2023-02-22T06:50:47;22.30;35.60
43561;DHT22;32305;46.410;17.394;2023-02-22T06:53:15;22.40;35.80
43561;DHT22;32305;46.410;17.394;2023-02-22T06:55:42;22.40;36.00
43561;DHT22;32305;46.410;17.394;2023-02-22T06:58:09;22.40;36.10
43561;DHT22;32305;46.410;17.394;2023-02-22T07:00:36;22.50;36.20
43561;DHT22;32305;46.410;17.394;2023-02-22T07:03:03;22.50;36.30
43561;DHT22;32305;46.410;17.394;2023-02-22T07:05:31;22.50;36.30
43561;DHT22;32305;46.410;17.394;2023-02-22T07:08:04;22.60;36.20
43561;DHT22;32305;46.410;17.394;2023-02-22T07:10:33;22.60;36.20
43561;DHT22;32305;46.410;17.394;2023-02-22T07:13:01;22.70;36.50
43561;DHT22;32305;46.410;17.394;2023-02-22T07:15:29;22.70;36.50
43561;DHT22;32305;46.410;17.394;2023-02-22T07:17:56;22.80;36.60
43561;DHT22;32305;46.410;17.394;2023-02-22T07:20:26;22.80;36.60
43561;DHT22;32305;46.410;17.394;2023-02-22T07:22:54;22.90;36.60
43561;DHT22;32305;46.410;17.394;2023-02-22T07:25:22;22.90;36.40
43561;DHT22;32305;46.410;17.394;2023-02-22T07:27:50;23.00;36.30
43561;DHT22;32305;46.410;17.394;2023-02-22T07:30:26;23.00;35.90
43561;DHT22;32305;46.410;17.394;2023-02-22T07:32:59;23.00;35.90
43561;DHT22;32305;46.410;17.394;2023-02-22T07:35:29;23.10;36.10
43561;DHT22;32305;46.410;17.394;2023-02-22T07:37:56;23.10;36.10
43561;DHT22;32305;46.410;17.394;2023-02-22T07:40:25;23.20;36.20
43561;DHT22;32305;46.410;17.394;2023-02-22T07:42:58;23.20;36.10
43561;DHT22;32305;46.410;17.394;2023-02-22T07:45:28;23.30;36.10
43561;DHT22;32305;46.410;17.394;2023-02-22T07:47:56;23.30;36.10
43561;DHT22;32305;46.410;17.394;2023-02-22T07:50:25;23.40;36.20
43561;DHT22;32305;46.410;17.394;2023-02-22T07:52:54;23.40;36.20
43561;DHT22;32305;46.410;17.394;2023-02-22T07:55:25;23.50;36.20
43561;DHT22;32305;46.410;17.394;2023-02-22T07:57:53;23.50;36.20
43561;DHT22;32305;46.410;17.394;2023-02-22T08:00:38;23.50;36.10
43561;DHT22;32305;46.410;17.394;2023-02-22T08:03:09;23.60;36.30
43561;DHT22;32305;46.410;17.394;2023-02-22T08:05:38;23.60;36.20
43561;DHT22;32305;46.410;17.394;2023-02-22T08:08:06;23.70;36.20
43561;DHT22;32305;46.410;17.394;2023-02-22T08:10:34;23.70;36.10
43561;DHT22;32305;46.410;17.394;2023-02-22T08:13:03;23.70;36.00
43561;DHT22;32305;46.410;17.394;2023-02-22T08:15:33;23.80;35.80
43561;DHT22;32305;46.410;17.394;2023-02-22T08:18:01;23.80;35.60
43561;DHT22;32305;46.410;17.394;2023-02-22T08:20:29;23.90;35.40
43561;DHT22;32305;46.410;17.394;2023-02-22T08:22:57;23.90;35.30
43561;DHT22;32305;46.410;17.394;2023-02-22T08:25:27;23.90;35.20
43561;DHT22;32305;46.410;17.394;2023-02-22T08:28:07;23.90;35.20
43561;DHT22;32305;46.410;17.394;2023-02-22T08:30:35;24.00;35.20
43561;DHT22;32305;46.410;17.394;2023-02-22T08:33:06;24.00;35.20
43561;DHT22;32305;46.410;17.394;2023-02-22T08:35:33;24.00;35.20
43561;DHT22;32305;46.410;17.394;2023-02-22T08:38:03;24.10;35.80
43561;DHT22;32305;46.410;17.394;2023-02-22T08:40:33;24.10;35.20
43561;DHT22;32305;46.410;17.394;2023-02-22T08:43:00;24.10;35.10
43561;DHT22;32305;46.410;17.394;2023-02-22T08:45:28;24.10;35.00
43561;DHT22;32305;46.410;17.394;2023-02-22T08:47:56;24.20;35.10
43561;DHT22;32305;46.410;17.394;2023-02-22T08:50:26;24.20;35.10
43561;DHT22;32305;46.410;17.394;2023-02-22T08:52:54;24.20;35.10
43561;DHT22;32305;46.410;17.394;2023-02-22T08:55:23;24.30;35.20
43561;DHT22;32305;46.410;17.394;2023-02-22T08:57:51;24.30;35.20
43561;DHT22;32305;46.410;17.394;2023-02-22T09:00:20;24.30;35.40
43561;DHT22;32305;46.410;17.394;2023-02-22T09:02:51;24.40;35.80
43561;DHT22;32305;46.410;17.394;2023-02-22T09:05:20;24.40;36.00
43561;DHT22;32305;46.410;17.394;2023-02-22T09:07:47;24.40;35.90
43561;DHT22;32305;46.410;17.394;2023-02-22T09:10:20;24.50;36.00
43561;DHT22;32305;46.410;17.394;2023-02-22T09:12:51;24.50;36.00
43561;DHT22;32305;46.410;17.394;2023-02-22T09:15:18;24.50;36.00
43561;DHT22;32305;46.410;17.394;2023-02-22T09:17:45;24.50;36.00
43561;DHT22;32305;46.410;17.394;2023-02-22T09:20:13;24.60;36.10
43561;DHT22;32305;46.410;17.394;2023-02-22T09:22:47;24.60;36.10
43561;DHT22;32305;46.410;17.394;2023-02-22T09:25:16;24.70;36.60
43561;DHT22;32305;46.410;17.394;2023-02-22T09:27:47;24.70;36.00
43561;DHT22;32305;46.410;17.394;2023-02-22T09:30:18;24.70;35.80
43561;DHT22;32305;46.410;17.394;2023-02-22T09:32:46;24.70;35.60
43561;DHT22;32305;46.410;17.394;2023-02-22T09:35:13;24.70;35.30
43561;DHT22;32305;46.410;17.394;2023-02-22T09:37:40;24.80;35.40
43561;DHT22;32305;46.410;17.394;2023-02-22T09:40:17;24.80;35.50
43561;DHT22;32305;46.410;17.394;2023-02-22T09:43:01;24.80;35.50
43561;DHT22;32305;46.410;17.394;2023-02-22T09:45:47;24.90;35.50
43561;DHT22;32305;46.410;17.394;2023-02-22T09:48:19;24.80;35.30
43561;DHT22;32305;46.410;17.394;2023-02-22T09:50:51;24.90;35.40
43561;DHT22;32305;46.410;17.394;2023-02-22T09:53:27;24.90;35.30
43561;DHT22;32305;46.410;17.394;2023-02-22T09:56:00;24.90;35.90
43561;DHT22;32305;46.410;17.394;2023-02-22T09:58:34;24.90;35.30
43561;DHT22;32305;46.410;17.394;2023-02-22T10:01:24;25.00;35.20
43561;DHT22;32305;46.410;17.394;2023-02-22T10:07:14;25.00;35.30
43561;DHT22;32305;46.410;17.394;2023-02-22T10:09:45;25.10;35.30
43561;DHT22;32305;46.410;17.394;2023-02-22T10:12:43;25.10;35.10
43561;DHT22;32305;46.410;17.394;2023-02-22T10:15:35;25.10;35.00
43561;DHT22;32305;46.410;17.394;2023-02-22T10:21:45;25.10;34.90
43561;DHT22;32305;46.410;17.394;2023-02-22T10:27:20;25.10;34.90
43561;DHT22;32305;46.410;17.394;2023-02-22T10:29:52;25.10;34.80
43561;DHT22;32305;46.410;17.394;2023-02-22T10:32:30;25.10;34.90
43561;DHT22;32305;46.410;17.394;2023-02-22T10:34:59;25.20;34.90
43561;DHT22;32305;46.410;17.394;2023-02-22T10:37:29;25.20;34.90
43561;DHT22;32305;46.410;17.394;2023-02-22T10:40:12;25.20;34.90
43561;DHT22;32305;46.410;17.394;2023-02-22T10:42:43;25.20;34.80
43561;DHT22;32305;46.410;17.394;2023-02-22T10:45:26;25.20;34.70
43561;DHT22;32305;46.410;17.394;2023-02-22T10:47:57;25.30;34.70
43561;DHT22;32305;46.410;17.394;2023-02-22T10:50:29;25.30;34.60
43561;DHT22;32305;46.410;17.394;2023-02-22T10:52:57;25.30;34.40
43561;DHT22;32305;46.410;17.394;2023-02-22T10:55:24;25.30;34.20
43561;DHT22;32305;46.410;17.394;2023-02-22T10:58:01;25.30;34.10
43561;DHT22;32305;46.410;17.394;2023-02-22T11:00:33;25.30;34.00
43561;DHT22;32305;46.410;17.394;2023-02-22T11:03:19;25.30;33.90
43561;DHT22;32305;46.410;17.394;2023-02-22T11:05:48;25.30;33.90
43561;DHT22;32305;46.410;17.394;2023-02-22T11:08:29;25.30;33.90
43561;DHT22;32305;46.410;17.394;2023-02-22T11:11:02;25.40;34.50
43561;DHT22;32305;46.410;17.394;2023-02-22T11:13:53;25.30;33.80
43561;DHT22;32305;46.410;17.394;2023-02-22T11:16:46;25.40;33.70
43561;DHT22;32305;46.410;17.394;2023-02-22T11:19:30;25.40;33.70
43561;DHT22;32305;46.410;17.394;2023-02-22T11:22:20;25.40;33.60
43561;DHT22;32305;46.410;17.394;2023-02-22T11:24:58;25.40;31.80
43561;DHT22;32305;46.410;17.394;2023-02-22T11:27:39;25.30;32.70
43561;DHT22;32305;46.410;17.394;2023-02-22T11:30:14;25.30;33.00
43561;DHT22;32305;46.410;17.394;2023-02-22T11:32:46;25.20;32.90
43561;DHT22;32305;46.410;17.394;2023-02-22T11:35:31;25.20;33.10
43561;DHT22;32305;46.410;17.394;2023-02-22T11:38:20;25.20;33.30
43561;DHT22;32305;46.410;17.394;2023-02-22T11:41:11;25.20;32.60
43561;DHT22;32305;46.410;17.394;2023-02-22T11:43:43;25.20;33.00
43561;DHT22;32305;46.410;17.394;2023-02-22T11:46:20;25.20;33.20
43561;DHT22;32305;46.410;17.394;2023-02-22T11:49:03;25.20;33.30
43561;DHT22;32305;46.410;17.394;2023-02-22T11:54:48;25.20;33.10
43561;DHT22;32305;46.410;17.394;2023-02-22T11:57:30;25.30;33.20
43561;DHT22;32305;46.410;17.394;2023-02-22T12:00:21;25.30;33.20
43561;DHT22;32305;46.410;17.394;2023-02-22T12:03:16;25.30;33.10
43561;DHT22;32305;46.410;17.394;2023-02-22T12:06:18;25.30;33.00
43561;DHT22;32305;46.410;17.394;2023-02-22T12:12:21;25.40;33.00
43561;DHT22;32305;46.410;17.394;2023-02-22T12:15:16;25.40;33.00
43561;DHT22;32305;46.410;17.394;2023-02-22T12:18:09;25.40;33.00
43561;DHT22;32305;46.410;17.394;2023-02-22T12:20:50;25.40;32.90
43561;DHT22;32305;46.410;17.394;2023-02-22T12:23:47;25.40;32.90
43561;DHT22;32305;46.410;17.394;2023-02-22T12:26:24;25.40;33.00
43561;DHT22;32305;46.410;17.394;2023-02-22T12:29:00;25.40;32.90
43561;DHT22;32305;46.410;17.394;2023-02-22T12:31:55;25.40;33.00
43561;DHT22;32305;46.410;17.394;2023-02-22T12:34:41;25.50;33.20
43561;DHT22;32305;46.410;17.394;2023-02-22T12:37:25;25.50;33.30
43561;DHT22;32305;46.410;17.394;2023-02-22T12:40:19;25.50;33.30
43561;DHT22;32305;46.410;17.394;2023-02-22T12:42:59;25.50;33.20
43561;DHT22;32305;46.410;17.394;2023-02-22T12:45:58;25.50;33.10
43561;DHT22;32305;46.410;17.394;2023-02-22T12:48:52;25.50;33.00
43561;DHT22;32305;46.410;17.394;2023-02-22T12:51:30;25.50;33.00
43561;DHT22;32305;46.410;17.394;2023-02-22T12:54:31;25.50;33.00
43561;DHT22;32305;46.410;17.394;2023-02-22T12:57:14;25.50;32.90
43561;DHT22;32305;46.410;17.394;2023-02-22T13:00:04;25.50;33.00
43561;DHT22;32305;46.410;17.394;2023-02-22T13:03:02;25.50;32.90
43561;DHT22;32305;46.410;17.394;2023-02-22T13:05:33;25.50;32.90
43561;DHT22;32305;46.410;17.394;2023-02-22T13:08:30;25.50;32.90
43561;DHT22;32305;46.410;17.394;2023-02-22T13:11:13;25.50;32.90
43561;DHT22;32305;46.410;17.394;2023-02-22T13:14:06;25.50;33.00
43561;DHT22;32305;46.410;17.394;2023-02-22T13:16:54;25.50;33.00
43561;DHT22;32305;46.410;17.394;2023-02-22T13:19:44;25.50;32.90
43561;DHT22;32305;46.410;17.394;2023-02-22T13:22:29;25.50;33.00
43561;DHT22;32305;46.410;17.394;2023-02-22T13:25:18;25.50;32.90
43561;DHT22;32305;46.410;17.394;2023-02-22T13:27:54;25.50;33.00
43561;DHT22;32305;46.410;17.394;2023-02-22T13:30:37;25.50;33.10
43561;DHT22;32305;46.410;17.394;2023-02-22T13:33:41;25.50;33.10
43561;DHT22;32305;46.410;17.394;2023-02-22T13:36:35;25.50;33.10
43561;DHT22;32305;46.410;17.394;2023-02-22T13:39:23;25.50;33.10
43561;DHT22;32305;46.410;17.394;2023-02-22T13:48:29;25.50;32.90
43561;DHT22;32305;46.410;17.394;2023-02-22T13:51:35;25.50;32.90
43561;DHT22;32305;46.410;17.394;2023-02-22T13:57:24;25.50;33.00
43561;DHT22;32305;46.410;17.394;2023-02-22T14:00:17;25.50;33.30
43561;DHT22;32305;46.410;17.394;2023-02-22T14:03:05;25.60;33.40
43561;DHT22;32305;46.410;17.394;2023-02-22T14:05:50;25.60;33.40
43561;DHT22;32305;46.410;17.394;2023-02-22T14:08:38;25.60;33.40
43561;DHT22;32305;46.410;17.394;2023-02-22T14:14:11;25.60;33.60
43561;DHT22;32305;46.410;17.394;2023-02-22T14:16:40;25.70;33.40
43561;DHT22;32305;46.410;17.394;2023-02-22T14:19:18;25.70;33.40
43561;DHT22;32305;46.410;17.394;2023-02-22T14:21:58;25.70;33.30
43561;DHT22;32305;46.410;17.394;2023-02-22T14:24:45;25.60;33.30
43561;DHT22;32305;46.410;17.394;2023-02-22T14:27:14;25.60;33.10
43561;DHT22;32305;46.410;17.394;2023-02-22T14:29:57;25.60;33.10
43561;DHT22;32305;46.410;17.394;2023-02-22T14:32:31;25.60;33.10
43561;DHT22;32305;46.410;17.394;2023-02-22T14:35:12;25.60;33.10
43561;DHT22;32305;46.410;17.394;2023-02-22T14:37:56;25.60;33.10
43561;DHT22;32305;46.410;17.394;2023-02-22T14:40:33;25.60;33.10
43561;DHT22;32305;46.410;17.394;2023-02-22T14:43:21;25.60;33.10
43561;DHT22;32305;46.410;17.394;2023-02-22T14:45:54;25.60;33.00
43561;DHT22;32305;46.410;17.394;2023-02-22T14:48:32;25.60;33.10
43561;DHT22;32305;46.410;17.394;2023-02-22T14:51:26;25.60;33.10
43561;DHT22;32305;46.410;17.394;2023-02-22T14:54:08;25.60;33.10
43561;DHT22;32305;46.410;17.394;2023-02-22T14:56:49;25.50;33.00
43561;DHT22;32305;46.410;17.394;2023-02-22T14:59:24;25.50;33.10
43561;DHT22;32305;46.410;17.394;2023-02-22T15:02:12;25.50;33.10
43561;DHT22;32305;46.410;17.394;2023-02-22T15:04:40;25.50;33.10
43561;DHT22;32305;46.410;17.394;2023-02-22T15:07:21;25.50;33.40
43561;DHT22;32305;46.410;17.394;2023-02-22T15:10:15;25.50;33.70
43561;DHT22;32305;46.410;17.394;2023-02-22T15:12:51;25.50;33.80
43561;DHT22;32305;46.410;17.394;2023-02-22T15:15:22;25.50;33.80
43561;DHT22;32305;46.410;17.394;2023-02-22T15:17:54;25.50;33.90
43561;DHT22;32305;46.410;17.394;2023-02-22T15:20:23;25.50;34.00
43561;DHT22;32305;46.410;17.394;2023-02-22T15:22:57;25.40;34.00
43561;DHT22;32305;46.410;17.394;2023-02-22T15:25:28;25.40;34.00
43561;DHT22;32305;46.410;17.394;2023-02-22T15:28:02;25.40;34.10
43561;DHT22;32305;46.410;17.394;2023-02-22T15:30:32;25.40;34.10
43561;DHT22;32305;46.410;17.394;2023-02-22T15:33:11;25.30;34.20
43561;DHT22;32305;46.410;17.394;2023-02-22T15:35:39;25.30;34.30
43561;DHT22;32305;46.410;17.394;2023-02-22T15:38:19;25.20;34.30
43561;DHT22;32305;46.410;17.394;2023-02-22T15:40:58;25.20;34.50
43561;DHT22;32305;46.410;17.394;2023-02-22T15:43:26;25.20;34.70
43561;DHT22;32305;46.410;17.394;2023-02-22T15:45:55;25.10;34.70
43561;DHT22;32305;46.410;17.394;2023-02-22T15:48:23;25.10;34.90
43561;DHT22;32305;46.410;17.394;2023-02-22T15:51:10;25.10;35.00
43561;DHT22;32305;46.410;17.394;2023-02-22T15:53:48;25.10;35.10
43561;DHT22;32305;46.410;17.394;2023-02-22T15:56:28;25.00;35.00
43561;DHT22;32305;46.410;17.394;2023-02-22T15:59:13;25.00;35.00
43561;DHT22;32305;46.410;17.394;2023-02-22T16:01:43;24.90;35.10
43561;DHT22;32305;46.410;17.394;2023-02-22T16:04:16;24.90;35.30
43561;DHT22;32305;46.410;17.394;2023-02-22T16:06:44;24.90;35.50
43561;DHT22;32305;46.410;17.394;2023-02-22T16:09:16;24.90;35.90
43561;DHT22;32305;46.410;17.394;2023-02-22T16:11:48;24.80;36.10
43561;DHT22;32305;46.410;17.394;2023-02-22T16:14:29;24.80;36.40
43561;DHT22;32305;46.410;17.394;2023-02-22T16:17:24;24.70;36.80
43561;DHT22;32305;46.410;17.394;2023-02-22T16:19:58;24.70;37.30
43561;DHT22;32305;46.410;17.394;2023-02-22T16:22:31;24.70;37.60
43561;DHT22;32305;46.410;17.394;2023-02-22T16:25:23;24.60;37.80
43561;DHT22;32305;46.410;17.394;2023-02-22T16:28:00;24.60;37.90
43561;DHT22;32305;46.410;17.394;2023-02-22T16:30:34;24.50;38.00
43561;DHT22;32305;46.410;17.394;2023-02-22T16:33:07;24.50;38.20
43561;DHT22;32305;46.410;17.394;2023-02-22T16:35:39;24.40;38.20
43561;DHT22;32305;46.410;17.394;2023-02-22T16:38:07;24.40;38.20
43561;DHT22;32305;46.410;17.394;2023-02-22T16:40:53;24.40;38.20
43561;DHT22;32305;46.410;17.394;2023-02-22T16:43:27;24.30;38.10
43561;DHT22;32305;46.410;17.394;2023-02-22T16:45:57;24.30;38.20